createdAt,value
2023-07-01T00:02:01.201Z,80.01
2023-07-01T00:04:31.990Z,80.80
2023-07-01T00:06:59.100Z,84.11
2023-07-01T00:09:26.060Z,83.96
2023-07-01T00:11:53.302Z,83.10
2023-07-01T00:14:20.378Z,82.06
2023-07-01T00:16:47.368Z,83.92
2023-07-01T00:19:14.357Z,82.20
2023-07-01T00:21:42.109Z,80.88
2023-07-01T00:24:09.243Z,82.74
2023-07-01T00:26:36.782Z,85.17
2023-07-01T00:29:03.913Z,83.02
2023-07-01T00:31:30.984Z,82.98
2023-07-01T00:33:58.127Z,83.58
2023-07-01T00:36:25.450Z,83.80
2023-07-01T00:38:52.423Z,80.31
2023-07-01T00:41:21.925Z,79.44
2023-07-01T00:43:49.553Z,82.02
2023-07-01T00:46:18.102Z,88.87
2023-07-01T00:48:46.053Z,90.27
2023-07-01T00:51:13.154Z,86.32
2023-07-01T00:53:41.319Z,80.51
2023-07-01T00:56:08.529Z,81.23
2023-07-01T00:58:36.167Z,81.08
2023-07-01T01:01:09.136Z,80.19
2023-07-01T01:03:51.557Z,80.37
2023-07-01T01:06:56.136Z,77.74
2023-07-01T01:09:43.453Z,76.51
2023-07-01T01:12:12.797Z,82.40
2023-07-01T01:14:41.092Z,95.89
2023-07-01T01:17:12.568Z,87.81
2023-07-01T01:19:47.440Z,91.51
2023-07-01T01:22:26.899Z,90.61
2023-07-01T01:24:59.877Z,90.60
2023-07-01T01:27:31.529Z,88.24
2023-07-01T01:29:58.987Z,89.31
2023-07-01T01:32:25.931Z,89.74
2023-07-01T01:34:52.953Z,91.35
2023-07-01T01:37:35.070Z,89.13
2023-07-01T01:40:14.667Z,89.41
2023-07-01T01:42:44.258Z,88.20
2023-07-01T01:45:11.348Z,88.33
2023-07-01T01:47:38.517Z,88.85
2023-07-01T01:50:09.701Z,87.91
2023-07-01T01:52:37.846Z,86.22
2023-07-01T01:55:06.796Z,85.48
2023-07-01T01:57:33.846Z,85.62
2023-07-01T02:00:00.757Z,82.78
2023-07-01T02:02:27.814Z,80.33
2023-07-01T02:04:54.871Z,80.13
2023-07-01T02:07:21.994Z,77.69
2023-07-01T02:09:48.922Z,80.61
2023-07-01T02:12:16.090Z,82.94
2023-07-01T02:14:42.979Z,84.70
2023-07-01T02:17:10.038Z,83.72
2023-07-01T02:19:37.069Z,82.23
2023-07-01T02:22:04.129Z,81.13
2023-07-01T02:24:31.103Z,81.52
2023-07-01T02:26:58.045Z,83.93
2023-07-01T02:29:24.974Z,84.18
2023-07-01T02:31:52.706Z,84.18
2023-07-01T02:34:27.099Z,84.85
2023-07-01T02:36:55.189Z,85.60
2023-07-01T02:39:22.105Z,85.98
2023-07-01T02:41:49.037Z,85.64
2023-07-01T02:44:16.037Z,88.43
2023-07-01T02:46:43.013Z,92.04
2023-07-01T02:49:10.056Z,92.56
2023-07-01T02:51:36.943Z,90.53
2023-07-01T02:54:03.947Z,91.22
2023-07-01T02:56:30.949Z,90.30
2023-07-01T02:58:57.875Z,88.09
2023-07-01T03:01:24.871Z,86.07
2023-07-01T03:03:52.822Z,85.63
2023-07-01T03:06:19.854Z,85.65
2023-07-01T03:08:46.855Z,88.21
2023-07-01T03:11:13.936Z,89.24
2023-07-01T03:13:40.901Z,89.49
2023-07-01T03:16:09.241Z,90.94
2023-07-01T03:18:36.854Z,91.97
2023-07-01T03:21:04.069Z,91.29
2023-07-01T03:23:31.805Z,91.89
2023-07-01T03:25:58.742Z,89.66
2023-07-01T03:28:25.737Z,91.51
2023-07-01T03:30:53.738Z,95.02
2023-07-01T03:33:20.791Z,95.46
2023-07-01T03:35:47.781Z,96.36
2023-07-01T03:38:15.076Z,97.70
2023-07-01T03:40:42.228Z,99.02
2023-07-01T03:43:09.112Z,98.33
2023-07-01T03:45:36.286Z,91.80
2023-07-01T03:48:03.439Z,91.52
2023-07-01T03:50:30.470Z,95.89
2023-07-01T03:52:57.383Z,94.54
2023-07-01T03:55:24.265Z,90.21
2023-07-01T03:57:51.122Z,90.45
2023-07-01T04:00:19.392Z,85.98
2023-07-01T04:02:51.476Z,84.37
2023-07-01T04:05:19.984Z,83.72
2023-07-01T04:07:49.343Z,82.90
2023-07-01T04:10:16.956Z,81.58
2023-07-01T04:12:44.035Z,82.14
2023-07-01T04:15:13.704Z,80.85
2023-07-01T04:17:46.095Z,79.23
2023-07-01T04:20:15.032Z,77.09
2023-07-01T04:22:43.039Z,79.13
2023-07-01T04:25:10.452Z,79.71
2023-07-01T04:27:37.495Z,78.87
2023-07-01T04:30:05.682Z,77.86
2023-07-01T04:32:32.615Z,77.88
2023-07-01T04:34:59.594Z,77.79
2023-07-01T04:37:26.908Z,76.66
2023-07-01T04:39:54.123Z,73.93
2023-07-01T04:42:21.201Z,73.81
2023-07-01T04:44:55.456Z,74.94
2023-07-01T04:47:23.510Z,71.68
2023-07-01T04:49:54.129Z,70.22
2023-07-01T04:52:25.897Z,69.00
2023-07-01T04:54:53.812Z,66.71
2023-07-01T04:57:20.817Z,67.97
2023-07-01T04:59:47.786Z,72.35
2023-07-01T05:02:14.842Z,72.50
2023-07-01T05:04:42.259Z,69.92
2023-07-01T05:07:09.494Z,70.09
2023-07-01T05:09:36.526Z,69.89
2023-07-01T05:12:04.377Z,67.09
2023-07-01T05:14:31.238Z,65.71
2023-07-01T05:16:58.270Z,65.63
2023-07-01T05:19:25.293Z,65.19
2023-07-01T05:21:53.942Z,65.11
2023-07-01T05:24:21.170Z,65.86
2023-07-01T05:26:50.211Z,66.00
2023-07-01T05:29:18.431Z,62.87
2023-07-01T05:31:45.452Z,60.81
2023-07-01T05:34:12.365Z,59.83
2023-07-01T05:36:39.332Z,55.83
2023-07-01T05:39:06.379Z,54.68
2023-07-01T05:41:33.501Z,51.53
2023-07-01T05:44:02.065Z,50.59
2023-07-01T05:46:30.731Z,51.30
2023-07-01T05:48:57.809Z,50.54
2023-07-01T05:51:24.717Z,50.23
2023-07-01T05:53:51.768Z,49.38
2023-07-01T05:56:18.862Z,51.55
2023-07-01T05:58:45.889Z,52.92
2023-07-01T06:01:12.889Z,55.22
2023-07-01T06:03:39.993Z,56.88
2023-07-01T06:06:07.011Z,57.77
2023-07-01T06:08:33.953Z,57.99
2023-07-01T06:11:00.944Z,59.63
2023-07-01T06:13:27.952Z,60.61
2023-07-01T06:15:55.083Z,61.28
2023-07-01T06:18:22.146Z,60.73
2023-07-01T06:20:49.482Z,60.21
2023-07-01T06:23:18.570Z,59.87
2023-07-01T06:25:45.702Z,56.49
2023-07-01T06:28:12.609Z,54.17
2023-07-01T06:30:40.534Z,56.08
2023-07-01T06:33:09.904Z,55.63
2023-07-01T06:35:36.751Z,55.42
2023-07-01T06:38:03.866Z,55.75
2023-07-01T06:40:30.920Z,57.55
2023-07-01T06:42:57.969Z,57.81
2023-07-01T06:45:24.965Z,58.81
2023-07-01T06:47:52.029Z,59.79
2023-07-01T06:50:18.953Z,59.91
2023-07-01T06:52:47.172Z,62.31
2023-07-01T06:55:15.197Z,58.40
2023-07-01T06:57:43.815Z,61.59
2023-07-01T07:00:12.849Z,63.01
2023-07-01T07:02:40.813Z,61.22
2023-07-01T07:05:09.985Z,63.96
2023-07-01T07:07:36.966Z,60.49
2023-07-01T07:10:04.837Z,59.60
2023-07-01T07:12:31.884Z,58.69
2023-07-01T07:14:58.834Z,61.78
2023-07-01T07:17:25.883Z,60.44
2023-07-01T07:19:53.191Z,61.45
2023-07-01T07:22:20.837Z,62.39
2023-07-01T07:24:47.930Z,63.09
2023-07-01T07:27:15.099Z,57.32
2023-07-01T07:29:42.111Z,59.42
2023-07-01T07:32:09.652Z,60.60
2023-07-01T07:34:36.849Z,57.55
2023-07-01T07:37:05.754Z,55.52
2023-07-01T07:39:32.838Z,56.74
2023-07-01T07:41:59.805Z,53.22
2023-07-01T07:44:26.768Z,56.96
2023-07-01T07:46:53.912Z,55.68
2023-07-01T07:49:21.024Z,56.82
2023-07-01T07:51:47.900Z,57.97
2023-07-01T07:54:15.036Z,57.10
2023-07-01T07:56:42.038Z,58.35
2023-07-01T07:59:08.961Z,56.37
2023-07-01T08:01:36.060Z,55.03
2023-07-01T08:04:03.131Z,54.39
2023-07-01T08:06:30.155Z,56.54
2023-07-01T08:08:57.673Z,55.30
2023-07-01T08:11:24.581Z,56.94
2023-07-01T08:13:51.594Z,53.26
2023-07-01T08:16:18.765Z,51.66
2023-07-01T08:18:45.767Z,52.39
2023-07-01T08:21:12.781Z,50.39
2023-07-01T08:23:39.720Z,50.39
2023-07-01T08:26:06.725Z,48.31
2023-07-01T08:28:33.679Z,50.38
2023-07-01T08:31:00.921Z,50.51
2023-07-01T08:33:29.727Z,47.66
2023-07-01T08:35:58.437Z,47.15
2023-07-01T08:38:30.423Z,49.75
2023-07-01T08:41:03.495Z,48.58
2023-07-01T08:43:32.058Z,50.33
2023-07-01T08:46:06.889Z,51.46
2023-07-01T08:48:34.246Z,47.89
2023-07-01T08:51:23.511Z,48.47
2023-07-01T08:53:53.288Z,48.88
2023-07-01T08:56:21.471Z,48.24
2023-07-01T08:58:49.862Z,48.16
2023-07-01T09:01:18.403Z,46.91
2023-07-01T09:03:48.264Z,45.41
2023-07-01T09:06:15.930Z,45.96
2023-07-01T09:08:43.328Z,45.20
2023-07-01T09:11:19.315Z,43.85
2023-07-01T09:13:46.316Z,43.22
2023-07-01T09:16:13.414Z,41.08
2023-07-01T09:18:45.065Z,39.94
2023-07-01T09:21:20.760Z,38.30
2023-07-01T09:23:48.288Z,36.60
2023-07-01T09:26:18.892Z,39.13
2023-07-01T09:28:48.085Z,40.59
2023-07-01T09:31:16.618Z,38.16
2023-07-01T09:34:01.919Z,39.72
2023-07-01T09:36:30.799Z,41.44
2023-07-01T09:38:58.551Z,40.98
2023-07-01T09:41:28.275Z,42.02
2023-07-01T09:43:57.603Z,44.50
2023-07-01T09:46:25.000Z,44.13
2023-07-01T09:48:54.313Z,42.16
2023-07-01T09:51:27.155Z,42.88
2023-07-01T09:53:54.466Z,38.90
2023-07-01T09:56:21.845Z,39.15
2023-07-01T09:58:51.272Z,36.64
2023-07-01T10:01:19.802Z,35.46
2023-07-01T10:03:47.224Z,38.32
2023-07-01T10:06:15.514Z,36.69
2023-07-01T10:08:44.733Z,35.99
2023-07-01T10:11:17.157Z,35.21
2023-07-01T10:13:51.487Z,34.69
2023-07-01T10:16:20.426Z,36.14
2023-07-01T10:18:47.873Z,35.44
2023-07-01T10:21:29.284Z,36.02
2023-07-01T10:23:58.840Z,37.56
2023-07-01T10:26:37.794Z,37.55
2023-07-01T10:29:33.087Z,38.52
2023-07-01T10:32:29.765Z,38.33
2023-07-01T10:34:56.796Z,37.55
2023-07-01T10:37:26.771Z,36.79
2023-07-01T10:39:55.484Z,36.45
2023-07-01T10:42:32.515Z,35.64
2023-07-01T10:45:12.142Z,38.39
2023-07-01T10:47:45.881Z,36.33
2023-07-01T10:50:14.512Z,35.32
2023-07-01T10:53:03.024Z,34.10
2023-07-01T10:55:42.376Z,35.49
2023-07-01T10:58:24.823Z,36.16
2023-07-01T11:00:59.147Z,35.25
2023-07-01T11:03:35.694Z,35.55
2023-07-01T11:06:04.387Z,35.59
2023-07-01T11:08:33.130Z,34.51
2023-07-01T11:11:00.832Z,35.48
2023-07-01T11:13:28.048Z,35.59
2023-07-01T11:16:06.696Z,35.72
2023-07-01T11:18:48.777Z,36.29
2023-07-01T11:21:20.427Z,36.11
2023-07-01T11:24:15.344Z,37.13
2023-07-01T11:26:44.557Z,37.00
2023-07-01T11:29:19.309Z,36.61
2023-07-01T11:31:46.665Z,37.33
2023-07-01T11:34:18.697Z,37.41
2023-07-01T11:36:48.792Z,37.25
2023-07-01T11:39:17.799Z,34.70
2023-07-01T11:42:14.238Z,35.25
2023-07-01T11:44:41.441Z,38.34
2023-07-01T11:47:16.046Z,38.07
2023-07-01T11:49:43.481Z,35.88
2023-07-01T11:52:10.799Z,35.93
2023-07-01T11:54:40.547Z,35.89
2023-07-01T11:57:14.811Z,37.13
2023-07-01T11:59:43.766Z,38.20
2023-07-01T12:02:11.383Z,37.90
2023-07-01T12:04:38.658Z,37.28
2023-07-01T12:07:13.463Z,37.27
2023-07-01T12:09:44.645Z,38.09
2023-07-01T12:12:32.274Z,38.01
2023-07-01T12:15:10.853Z,39.28
2023-07-01T12:17:38.101Z,36.92
2023-07-01T12:20:08.777Z,37.25
2023-07-01T12:22:36.972Z,37.13
2023-07-01T12:25:04.510Z,37.73
2023-07-01T12:27:32.304Z,38.83
2023-07-01T12:29:59.380Z,35.49
2023-07-01T12:32:27.410Z,35.33
2023-07-01T12:34:55.424Z,36.51
2023-07-01T12:37:23.817Z,36.61
2023-07-01T12:39:55.050Z,35.93
2023-07-01T12:42:23.233Z,35.77
2023-07-01T12:44:50.902Z,35.35
2023-07-01T12:47:20.926Z,34.69
2023-07-01T12:49:48.361Z,33.97
2023-07-01T12:52:15.388Z,36.28
2023-07-01T12:54:42.497Z,37.38
2023-07-01T12:57:09.454Z,37.95
2023-07-01T12:59:36.516Z,39.49
2023-07-01T13:02:03.627Z,39.98
2023-07-01T13:04:30.865Z,40.01
2023-07-01T13:06:58.054Z,41.71
2023-07-01T13:09:46.259Z,41.17
2023-07-01T13:12:14.514Z,40.68
2023-07-01T13:14:41.510Z,40.74
2023-07-01T13:17:08.695Z,41.33
2023-07-01T13:19:35.812Z,40.99
2023-07-01T13:22:02.925Z,41.04
2023-07-01T13:24:38.044Z,40.36
2023-07-01T13:27:10.209Z,39.37
2023-07-01T13:29:37.270Z,39.83
2023-07-01T13:32:08.108Z,38.97
2023-07-01T13:34:42.327Z,38.41
2023-07-01T13:37:12.436Z,38.80
2023-07-01T13:39:50.199Z,38.15
2023-07-01T13:42:24.021Z,39.47
2023-07-01T13:44:58.505Z,37.38
2023-07-01T13:47:47.194Z,36.66
2023-07-01T13:50:25.906Z,36.82
2023-07-01T13:53:00.153Z,36.34
2023-07-01T13:55:29.958Z,35.93
2023-07-01T13:57:56.885Z,36.81
2023-07-01T14:00:23.775Z,37.42
2023-07-01T14:02:51.012Z,37.72
2023-07-01T14:05:18.195Z,37.69
2023-07-01T14:07:45.740Z,37.39
2023-07-01T14:10:30.336Z,39.01
2023-07-01T14:12:58.708Z,39.27
2023-07-01T14:15:37.978Z,46.29
2023-07-01T14:18:29.245Z,50.44
2023-07-01T14:20:59.923Z,54.70
2023-07-01T14:23:32.433Z,54.40
2023-07-01T14:25:59.867Z,54.86
2023-07-01T14:28:27.214Z,54.78
2023-07-01T14:31:04.958Z,63.33
2023-07-01T14:33:39.376Z,62.69
2023-07-01T14:36:12.017Z,68.03
2023-07-01T14:38:48.292Z,63.86
2023-07-01T14:41:47.744Z,66.00
2023-07-01T14:44:20.398Z,70.64
2023-07-01T14:46:47.687Z,71.26
2023-07-01T14:49:14.853Z,68.18
2023-07-01T14:51:41.843Z,75.10
2023-07-01T14:54:08.918Z,74.09
2023-07-01T14:56:35.920Z,71.05
2023-07-01T14:59:03.115Z,68.26
2023-07-01T15:01:30.163Z,67.86
2023-07-01T15:03:57.163Z,67.70
2023-07-01T15:06:24.267Z,67.47
2023-07-01T15:08:51.220Z,68.94
2023-07-01T15:11:19.788Z,67.85
2023-07-01T15:13:47.136Z,65.99
2023-07-01T15:16:14.785Z,70.66
2023-07-01T15:18:41.892Z,73.02
2023-07-01T15:21:08.976Z,72.08
2023-07-01T15:23:35.898Z,70.73
2023-07-01T15:26:02.858Z,71.47
2023-07-01T15:28:29.980Z,71.99
2023-07-01T15:30:57.001Z,75.82
2023-07-01T15:33:24.009Z,73.44
2023-07-01T15:35:51.240Z,72.39
2023-07-01T15:38:18.816Z,72.77
2023-07-01T15:40:47.939Z,70.94
2023-07-01T15:43:18.007Z,73.54
2023-07-01T15:45:47.609Z,79.48
2023-07-01T15:48:15.245Z,80.75
2023-07-01T15:50:42.271Z,74.10
2023-07-01T15:53:09.192Z,73.60
2023-07-01T15:55:36.927Z,73.97
2023-07-01T15:58:04.948Z,75.48
2023-07-01T16:00:32.062Z,72.33
2023-07-01T16:02:59.120Z,70.31
2023-07-01T16:05:27.824Z,71.89
2023-07-01T16:08:00.100Z,70.90
2023-07-01T16:10:28.117Z,72.66
2023-07-01T16:12:57.825Z,70.89
2023-07-01T16:15:25.279Z,75.26
2023-07-01T16:17:55.150Z,73.05
2023-07-01T16:20:34.685Z,71.13
2023-07-01T16:23:11.393Z,71.22
2023-07-01T16:25:41.480Z,70.76
2023-07-01T16:28:09.293Z,69.61
2023-07-01T16:30:41.615Z,73.44
2023-07-01T16:33:09.214Z,71.93
2023-07-01T16:35:48.671Z,73.76
2023-07-01T16:38:30.541Z,72.45
2023-07-01T16:41:01.193Z,68.50
2023-07-01T16:43:43.682Z,70.87
2023-07-01T16:46:11.091Z,70.94
2023-07-01T16:48:45.544Z,71.82
2023-07-01T16:51:15.327Z,70.88
2023-07-01T16:53:47.589Z,70.84
2023-07-01T16:56:16.649Z,71.51
2023-07-01T16:58:52.014Z,72.77
2023-07-01T17:01:37.687Z,73.54
2023-07-01T17:04:05.022Z,74.07
2023-07-01T17:06:48.579Z,76.25
2023-07-01T17:09:39.576Z,78.46
2023-07-01T17:12:08.683Z,76.29
2023-07-01T17:14:47.748Z,78.37
2023-07-01T17:17:29.998Z,82.78
2023-07-01T17:19:58.608Z,84.91
2023-07-01T17:22:27.182Z,83.17
2023-07-01T17:24:55.012Z,82.34
2023-07-01T17:27:22.216Z,82.13
2023-07-01T17:29:49.756Z,82.03
2023-07-01T17:32:17.109Z,82.96
2023-07-01T17:34:58.854Z,85.64
2023-07-01T17:37:25.974Z,84.58
2023-07-01T17:39:52.976Z,81.56
2023-07-01T17:42:20.124Z,81.62
2023-07-01T17:44:56.039Z,82.45
2023-07-01T17:47:23.755Z,87.92
2023-07-01T17:49:50.896Z,85.42
2023-07-01T17:52:17.907Z,83.60
2023-07-01T17:54:45.095Z,85.99
2023-07-01T17:57:12.567Z,85.16
2023-07-01T17:59:40.239Z,85.64
2023-07-01T18:02:07.613Z,86.07
2023-07-01T18:04:34.602Z,86.26
2023-07-01T18:07:01.606Z,89.84
2023-07-01T18:09:28.852Z,84.87
2023-07-01T18:11:55.788Z,83.36
2023-07-01T18:14:24.724Z,84.61
2023-07-01T18:16:53.453Z,82.06
2023-07-01T18:19:21.058Z,84.59
2023-07-01T18:21:48.578Z,84.86
2023-07-01T18:24:16.857Z,83.86
2023-07-01T18:26:48.839Z,83.71
2023-07-01T18:29:16.917Z,83.33
2023-07-01T18:31:44.251Z,81.00
2023-07-01T18:34:14.958Z,81.64
2023-07-01T18:36:41.934Z,82.48
2023-07-01T18:39:08.904Z,82.79
2023-07-01T18:41:37.862Z,82.97
2023-07-01T18:44:07.193Z,82.48
2023-07-01T18:46:34.413Z,82.13
2023-07-01T18:49:01.552Z,82.10
2023-07-01T18:51:31.932Z,80.12
2023-07-01T18:53:58.904Z,80.33
2023-07-01T18:56:25.922Z,79.87
2023-07-01T18:58:53.790Z,78.41
2023-07-01T19:01:20.891Z,81.21
2023-07-01T19:03:47.895Z,81.07
2023-07-01T19:06:14.917Z,79.80
2023-07-01T19:08:42.110Z,78.67
2023-07-01T19:11:09.118Z,80.59
2023-07-01T19:13:36.129Z,82.39
2023-07-01T19:16:03.161Z,81.05
2023-07-01T19:18:30.132Z,81.27
2023-07-01T19:20:57.254Z,82.64
2023-07-01T19:23:24.212Z,81.76
2023-07-01T19:25:52.239Z,81.45
2023-07-01T19:28:23.683Z,85.51
2023-07-01T19:30:50.745Z,87.45
2023-07-01T19:33:20.528Z,87.27
2023-07-01T19:35:50.937Z,87.59
2023-07-01T19:38:18.916Z,87.10
2023-07-01T19:40:45.830Z,88.45
2023-07-01T19:43:12.797Z,85.51
2023-07-01T19:45:39.900Z,86.96
2023-07-01T19:48:07.071Z,84.07
2023-07-01T19:50:34.137Z,86.55
2023-07-01T19:53:01.168Z,85.72
2023-07-01T19:55:28.180Z,88.33
2023-07-01T19:57:55.199Z,84.24
2023-07-01T20:00:23.712Z,85.47
2023-07-01T20:02:51.686Z,83.44
2023-07-01T20:05:18.918Z,88.08
2023-07-01T20:07:45.922Z,86.60
2023-07-01T20:10:24.296Z,86.42
2023-07-01T20:12:56.708Z,86.09
2023-07-01T20:15:23.747Z,88.57
2023-07-01T20:17:50.732Z,87.61
2023-07-01T20:20:17.799Z,88.00
2023-07-01T20:22:44.794Z,85.88
2023-07-01T20:25:11.968Z,85.57
2023-07-01T20:27:38.955Z,85.81
2023-07-01T20:30:07.177Z,86.10
2023-07-01T20:32:34.235Z,85.87
2023-07-01T20:35:01.255Z,85.86
2023-07-01T20:37:28.225Z,83.82
2023-07-01T20:39:55.146Z,83.40
2023-07-01T20:42:22.683Z,84.76
2023-07-01T20:44:50.560Z,85.01
2023-07-01T20:47:17.645Z,84.86
2023-07-01T20:49:48.479Z,85.33
2023-07-01T20:52:17.261Z,86.81
2023-07-01T20:54:45.263Z,89.16
2023-07-01T20:57:16.389Z,90.25
2023-07-01T20:59:45.281Z,87.98
2023-07-01T21:02:12.957Z,84.05
2023-07-01T21:04:40.081Z,85.20
2023-07-01T21:07:08.681Z,83.11
2023-07-01T21:09:35.724Z,83.46
2023-07-01T21:12:03.170Z,86.06
2023-07-01T21:14:30.195Z,88.75
2023-07-01T21:16:57.570Z,87.88
2023-07-01T21:19:24.699Z,89.17
2023-07-01T21:21:52.188Z,88.22
2023-07-01T21:24:19.826Z,89.37
2023-07-01T21:26:47.240Z,90.26
2023-07-01T21:29:19.225Z,90.85
2023-07-01T21:31:51.932Z,90.13
2023-07-01T21:34:20.883Z,89.57
2023-07-01T21:36:51.528Z,93.09
2023-07-01T21:39:25.021Z,91.61
2023-07-01T21:41:52.427Z,92.25
2023-07-01T21:44:19.733Z,93.18
2023-07-01T21:46:49.651Z,92.76
2023-07-01T21:49:21.133Z,91.58
2023-07-01T21:51:48.555Z,89.21
2023-07-01T21:54:21.155Z,88.87
2023-07-01T21:56:50.289Z,90.47
2023-07-01T21:59:17.504Z,90.25
2023-07-01T22:01:46.941Z,90.92
2023-07-01T22:04:17.108Z,93.82
2023-07-01T22:06:48.831Z,92.88
2023-07-01T22:09:17.814Z,91.86
2023-07-01T22:11:45.455Z,92.38
2023-07-01T22:14:13.708Z,92.54
2023-07-01T22:16:41.185Z,87.33
2023-07-01T22:19:08.171Z,85.50
2023-07-01T22:21:35.153Z,85.99
2023-07-01T22:24:04.438Z,88.70
2023-07-01T22:26:31.381Z,87.13
2023-07-01T22:28:58.592Z,90.02
2023-07-01T22:31:25.633Z,89.15
2023-07-01T22:33:52.619Z,87.61
2023-07-01T22:36:20.752Z,90.14
2023-07-01T22:38:49.811Z,91.25
2023-07-01T22:41:16.775Z,89.43
2023-07-01T22:43:43.708Z,89.93
2023-07-01T22:46:11.198Z,88.37
2023-07-01T22:48:39.236Z,86.72
2023-07-01T22:51:06.337Z,88.51
2023-07-01T22:53:33.376Z,91.27
2023-07-01T22:56:01.242Z,88.30
2023-07-01T22:58:28.248Z,91.37
2023-07-01T23:00:55.332Z,90.09
2023-07-01T23:03:22.936Z,87.69
2023-07-01T23:05:50.231Z,89.88
2023-07-01T23:08:17.658Z,88.92
2023-07-01T23:10:44.640Z,90.71
2023-07-01T23:13:11.650Z,86.67
2023-07-01T23:15:39.311Z,86.06
2023-07-01T23:18:07.293Z,86.19
2023-07-01T23:20:34.310Z,84.86
2023-07-01T23:23:04.186Z,84.44
2023-07-01T23:25:33.119Z,84.65
2023-07-01T23:28:00.361Z,85.75
2023-07-01T23:30:29.157Z,88.38
2023-07-01T23:32:57.684Z,88.26
2023-07-01T23:35:25.056Z,87.26
2023-07-01T23:37:52.440Z,87.20
2023-07-01T23:40:19.605Z,87.41
2023-07-01T23:42:46.855Z,87.56
2023-07-01T23:45:17.046Z,88.83
2023-07-01T23:47:51.238Z,88.67
2023-07-01T23:50:19.601Z,85.38
2023-07-01T23:52:46.744Z,87.00
2023-07-01T23:55:13.932Z,85.45
2023-07-01T23:57:40.934Z,88.10
